Time;durP1;ratioP1;P1;durP2;ratioP2;P2;SDS_P1;SDS_P2;PMS_P1;PMS_P2;Temp;Humidity;BMP_temperature;BMP_pressure;BME280_temperature;BME280_humidity;BME280_pressure;Samples;Min_cycle;Max_cycle;Signal;HPM_P1;HPM_P2
2021/04/17 00:01:16;;;;;;;9.55;7.45;;;5.70;95.90;;;;;;5076988;28;20033;-84
2021/04/17 00:03:42;;;;;;;9.35;7.78;;;5.80;95.90;;;;;;5076492;28;20424;-84
2021/04/17 00:06:08;;;;;;;8.68;7.07;;;5.70;95.90;;;;;;5094489;28;20034;-85
2021/04/17 00:08:34;;;;;;;11.02;8.05;;;5.80;95.90;;;;;;5076378;28;20127;-84
2021/04/17 00:11:00;;;;;;;10.52;8.27;;;5.70;96.00;;;;;;5076398;28;20085;-85
2021/04/17 00:13:26;;;;;;;9.52;7.80;;;5.80;96.00;;;;;;5076416;28;20028;-84
2021/04/17 00:15:52;;;;;;;9.32;7.63;;;5.70;96.00;;;;;;5076215;28;20370;-85
2021/04/17 00:18:17;;;;;;;11.00;8.70;;;5.80;95.90;;;;;;5076359;28;20035;-84
2021/04/17 00:20:43;;;;;;;10.00;8.00;;;5.80;96.10;;;;;;5076088;28;20506;-84
2021/04/17 00:23:09;;;;;;;11.23;8.35;;;5.80;95.90;;;;;;5094123;28;20035;-85
2021/04/17 00:25:34;;;;;;;12.63;8.75;;;5.70;95.90;;;;;;5076075;28;20039;-84
2021/04/17 00:28:00;;;;;;;11.65;7.78;;;5.70;95.90;;;;;;5076297;28;20036;-85
2021/04/17 00:30:26;;;;;;;9.32;8.05;;;5.70;96.00;;;;;;5076053;28;20039;-85
2021/04/17 00:32:51;;;;;;;13.95;9.30;;;5.70;96.10;;;;;;5094181;28;20080;-84
2021/04/17 00:35:17;;;;;;;20.20;10.40;;;5.70;96.00;;;;;;5094623;28;20514;-83
2021/04/17 00:37:43;;;;;;;14.63;10.07;;;5.80;96.00;;;;;;5096237;28;20043;-84
2021/04/17 00:40:09;;;;;;;14.48;10.18;;;5.80;96.00;;;;;;5097017;28;20031;-85
2021/04/17 00:42:36;;;;;;;16.70;10.93;;;5.80;95.90;;;;;;5096189;28;20027;-84
2021/04/17 00:45:05;;;;;;;19.55;12.18;;;5.90;95.90;;;;;;5114521;28;20440;-85
2021/04/17 00:47:31;;;;;;;17.05;11.27;;;5.80;96.00;;;;;;5097862;28;20031;-84
2021/04/17 00:49:56;;;;;;;20.40;12.50;;;5.90;96.00;;;;;;5105753;28;20035;-85
2021/04/17 00:52:22;;;;;;;23.67;13.18;;;5.90;95.80;;;;;;5096225;28;20027;-84
2021/04/17 00:54:48;;;;;;;20.80;13.35;;;5.80;95.90;;;;;;5114103;28;20090;-84
2021/04/17 00:57:14;;;;;;;21.75;13.05;;;5.90;95.90;;;;;;5097622;28;20035;-84
2021/04/17 00:59:39;;;;;;;23.98;12.93;;;5.80;95.90;;;;;;5100318;28;20035;-85
2021/04/17 01:02:05;;;;;;;28.33;16.20;;;5.90;96.00;;;;;;5100310;28;20413;-86
2021/04/17 01:04:39;;;;;;;26.30;15.85;;;5.90;96.10;;;;;;5100092;28;20397;-85
2021/04/17 01:07:20;;;;;;;25.75;16.50;;;5.90;96.00;;;;;;5100523;28;20434;-85
2021/04/17 01:09:53;;;;;;;28.92;17.92;;;5.90;96.00;;;;;;5099912;28;20059;-84
2021/04/17 01:12:26;;;;;;;29.33;19.10;;;6.00;95.90;;;;;;5099846;28;20055;-85
2021/04/17 01:14:53;;;;;;;24.13;16.05;;;5.80;96.10;;;;;;5118128;28;20050;-85
2021/04/17 01:17:20;;;;;;;21.20;14.52;;;5.90;96.10;;;;;;5099959;28;20024;-84
2021/04/17 01:20:08;;;;;;;19.20;13.02;;;5.90;96.00;;;;;;5099785;28;20477;-85
2021/04/17 01:22:36;;;;;;;19.65;13.10;;;6.00;95.90;;;;;;5099848;28;20028;-85
2021/04/17 01:25:09;;;;;;;18.50;12.02;;;6.00;95.90;;;;;;5099690;28;20036;-85
2021/04/17 01:27:35;;;;;;;22.92;13.32;;;6.00;95.80;;;;;;5099504;28;20415;-85
2021/04/17 01:30:09;;;;;;;18.67;11.55;;;6.00;95.90;;;;;;5099542;28;20099;-85
2021/04/17 01:32:36;;;;;;;17.67;10.50;;;6.00;95.80;;;;;;5099800;28;20059;-84
2021/04/17 01:35:06;;;;;;;18.58;11.15;;;6.10;95.80;;;;;;5099579;28;20119;-85
2021/04/17 01:37:54;;;;;;;17.77;10.15;;;6.10;95.80;;;;;;5103111;28;20390;-85
2021/04/17 01:40:24;;;;;;;18.50;10.38;;;6.10;95.90;;;;;;5079070;28;20044;-84
2021/04/17 01:42:51;;;;;;;17.33;10.17;;;6.20;95.80;;;;;;5097302;28;20099;-85
2021/04/17 01:45:20;;;;;;;19.27;10.27;;;6.10;95.90;;;;;;5079054;28;20381;-84
2021/04/17 01:47:48;;;;;;;16.70;10.27;;;6.10;95.90;;;;;;5078951;28;20047;-84
2021/04/17 01:50:16;;;;;;;15.95;9.25;;;6.10;95.90;;;;;;5078733;28;20044;-85
2021/04/17 01:52:44;;;;;;;12.52;9.00;;;6.10;95.80;;;;;;5097022;28;20473;-86
2021/04/17 01:55:12;;;;;;;13.77;9.55;;;6.20;95.80;;;;;;5078943;28;20024;-85
2021/04/17 01:57:39;;;;;;;19.83;10.23;;;6.20;95.80;;;;;;5078827;28;20024;-84
2021/04/17 02:00:06;;;;;;;23.83;11.40;;;6.10;95.80;;;;;;5079136;28;20478;-83
2021/04/17 02:02:32;;;;;;;18.83;10.25;;;6.10;95.90;;;;;;5079031;28;20115;-84
2021/04/17 02:04:58;;;;;;;18.45;10.73;;;6.10;96.00;;;;;;5078378;28;20556;-84
2021/04/17 02:07:24;;;;;;;25.75;12.10;;;6.10;96.00;;;;;;5078600;28;20077;-84
2021/04/17 02:09:49;;;;;;;27.00;13.52;;;6.10;96.10;;;;;;5078564;28;20060;-85
2021/04/17 02:12:15;;;;;;;24.45;12.38;;;6.00;96.20;;;;;;5096658;28;20024;-84
2021/04/17 02:14:41;;;;;;;23.77;11.57;;;6.00;96.10;;;;;;5078380;28;20028;-85
2021/04/17 02:17:19;;;;;;;18.80;11.65;;;6.00;96.20;;;;;;5074962;28;20024;-85
2021/04/17 02:19:54;;;;;;;22.77;11.95;;;6.10;96.20;;;;;;5058395;28;20055;-85
2021/04/17 02:22:23;;;;;;;24.02;13.05;;;6.10;96.20;;;;;;5058300;28;20478;-85
2021/04/17 02:24:49;;;;;;;26.92;14.88;;;6.00;96.20;;;;;;5058458;28;20402;-85
2021/04/17 02:27:15;;;;;;;37.22;17.65;;;6.00;96.30;;;;;;5076109;28;20035;-85
2021/04/17 02:29:40;;;;;;;30.20;16.33;;;6.00;96.40;;;;;;5058110;28;20029;-85
2021/04/17 02:32:13;;;;;;;35.00;17.38;;;6.00;96.30;;;;;;5058244;28;20062;-85
2021/04/17 02:34:40;;;;;;;29.55;14.77;;;6.10;96.30;;;;;;5065561;28;20040;-86
2021/04/17 02:37:06;;;;;;;26.50;15.30;;;6.10;96.00;;;;;;5092273;28;20040;-84
2021/04/17 02:39:32;;;;;;;33.95;17.10;;;6.20;96.00;;;;;;5078148;28;20040;-84
2021/04/17 02:41:58;;;;;;;33.80;16.92;;;6.20;96.00;;;;;;5078028;28;20109;-85
2021/04/17 02:44:24;;;;;;;32.55;17.67;;;6.20;95.80;;;;;;5078370;28;20123;-85
2021/04/17 02:46:49;;;;;;;36.85;20.25;;;6.20;95.90;;;;;;5096069;28;20040;-84
2021/04/17 02:49:15;;;;;;;31.08;17.15;;;6.20;95.80;;;;;;5077912;28;20032;-85
2021/04/17 02:51:41;;;;;;;33.88;18.08;;;6.30;95.90;;;;;;5078563;28;20036;-84
2021/04/17 02:54:06;;;;;;;37.00;19.38;;;6.30;95.70;;;;;;5077739;28;20082;-85
2021/04/17 02:56:32;;;;;;;46.67;24.77;;;6.30;95.70;;;;;;5077657;28;20036;-83
2021/04/17 02:58:58;;;;;;;43.10;22.92;;;6.30;96.00;;;;;;5077668;28;20031;-84
2021/04/17 03:01:24;;;;;;;40.88;22.23;;;6.30;96.00;;;;;;5095727;28;20397;-84
2021/04/17 03:03:49;;;;;;;31.40;19.25;;;6.30;95.90;;;;;;5077439;28;20032;-83
2021/04/17 03:06:15;;;;;;;49.25;25.60;;;6.30;95.90;;;;;;5095640;28;20097;-84
2021/04/17 03:08:41;;;;;;;57.33;29.25;;;6.30;96.10;;;;;;5095496;28;20028;-84
2021/04/17 03:11:06;;;;;;;40.03;22.70;;;6.20;96.70;;;;;;5077405;28;20040;-84
2021/04/17 03:13:32;;;;;;;37.88;20.52;;;6.20;96.40;;;;;;5077399;28;20028;-84
2021/04/17 03:15:57;;;;;;;33.70;20.50;;;6.20;96.30;;;;;;5095391;28;20056;-84
2021/04/17 03:18:24;;;;;;;37.33;20.70;;;6.30;96.20;;;;;;5077689;28;20090;-85
2021/04/17 03:20:50;;;;;;;31.38;17.42;;;6.30;96.20;;;;;;5076327;28;20038;-85
2021/04/17 03:23:16;;;;;;;33.00;20.13;;;6.30;96.20;;;;;;5077006;28;20130;-85
2021/04/17 03:25:41;;;;;;;32.67;17.40;;;6.40;96.40;;;;;;5077156;28;20115;-85
2021/04/17 03:28:07;;;;;;;27.02;15.38;;;6.40;96.10;;;;;;5076966;28;20497;-84
2021/04/17 03:30:33;;;;;;;32.30;16.48;;;6.40;96.10;;;;;;5076900;28;20039;-84
2021/04/17 03:33:00;;;;;;;30.58;17.38;;;6.50;96.10;;;;;;5095059;28;20107;-84
2021/04/17 03:35:29;;;;;;;26.58;15.65;;;6.50;96.00;;;;;;5094859;28;20020;-84
2021/04/17 03:37:54;;;;;;;26.17;14.68;;;6.50;95.90;;;;;;5114869;28;20126;-84
2021/04/17 03:40:20;;;;;;;21.98;14.13;;;6.50;95.80;;;;;;5097270;28;20422;-85
2021/04/17 03:42:46;;;;;;;25.98;16.27;;;6.50;95.80;;;;;;5115181;28;20027;-84
2021/04/17 03:45:12;;;;;;;27.27;16.10;;;6.50;96.30;;;;;;5115024;28;20106;-83
2021/04/17 03:47:39;;;;;;;23.95;13.32;;;6.40;96.40;;;;;;5096575;28;20024;-83
2021/04/17 03:50:06;;;;;;;24.55;15.27;;;6.50;96.20;;;;;;5096545;28;20031;-83
2021/04/17 03:52:32;;;;;;;25.10;14.50;;;6.50;96.30;;;;;;5114658;28;20089;-84
2021/04/17 03:54:58;;;;;;;23.77;14.30;;;6.50;96.50;;;;;;5096708;28;20114;-84
2021/04/17 03:57:24;;;;;;;20.42;12.50;;;6.50;96.30;;;;;;5096458;28;20130;-84
2021/04/17 03:59:49;;;;;;;19.70;11.77;;;6.50;96.30;;;;;;5114717;28;20099;-82
2021/04/17 04:02:15;;;;;;;18.95;12.30;;;6.50;96.30;;;;;;5096860;28;20122;-82
2021/04/17 04:04:41;;;;;;;20.48;12.13;;;6.60;96.20;;;;;;5115466;28;20032;-82
2021/04/17 04:07:07;;;;;;;20.95;12.02;;;6.60;96.00;;;;;;5096267;28;20050;-82
2021/04/17 04:09:33;;;;;;;20.45;12.30;;;6.60;96.30;;;;;;5097058;28;20089;-82
2021/04/17 04:11:58;;;;;;;16.17;11.13;;;6.60;96.00;;;;;;5096510;28;20038;-83
2021/04/17 04:14:25;;;;;;;15.70;10.57;;;6.70;96.10;;;;;;5114431;28;20024;-82
2021/04/17 04:16:51;;;;;;;19.92;11.77;;;6.70;96.00;;;;;;5114341;28;20085;-82
2021/04/17 04:19:17;;;;;;;18.42;11.30;;;6.70;96.00;;;;;;5096014;28;20039;-82
2021/04/17 04:21:42;;;;;;;17.95;11.32;;;6.70;95.90;;;;;;5106944;28;20032;-84
2021/04/17 04:24:09;;;;;;;20.52;11.70;;;6.80;96.00;;;;;;5095899;28;20512;-83
2021/04/17 04:26:35;;;;;;;19.90;12.00;;;6.80;96.00;;;;;;5114372;28;20051;-83
2021/04/17 04:29:01;;;;;;;27.02;16.52;;;6.80;96.00;;;;;;5114238;28;20043;-83
2021/04/17 04:31:26;;;;;;;32.17;18.88;;;6.70;96.50;;;;;;5095043;28;20032;-82
2021/04/17 04:33:52;;;;;;;30.90;18.00;;;6.70;96.80;;;;;;5114115;28;20366;-82
2021/04/17 04:36:18;;;;;;;29.55;16.35;;;6.70;96.50;;;;;;5093124;28;20044;-82
2021/04/17 04:38:43;;;;;;;27.67;16.25;;;6.70;96.40;;;;;;5092754;28;20143;-81
2021/04/17 04:41:09;;;;;;;21.83;13.38;;;6.70;96.70;;;;;;5092656;28;20035;-82
2021/04/17 04:43:35;;;;;;;23.13;14.60;;;6.70;96.60;;;;;;5092249;28;20040;-81
2021/04/17 04:46:00;;;;;;;24.33;15.05;;;6.80;96.60;;;;;;5092215;28;20081;-82
2021/04/17 04:48:26;;;;;;;39.97;21.88;;;6.70;97.00;;;;;;5092419;28;20397;-81
2021/04/17 04:50:52;;;;;;;28.42;16.77;;;6.60;97.70;;;;;;5093195;28;20441;-81
2021/04/17 04:53:19;;;;;;;29.33;17.42;;;6.60;97.50;;;;;;5093668;28;20060;-82
2021/04/17 04:55:45;;;;;;;28.27;16.40;;;6.60;97.50;;;;;;5093682;28;20432;-81
2021/04/17 04:58:10;;;;;;;32.08;18.17;;;6.60;97.30;;;;;;5092450;28;20032;-90
2021/04/17 05:00:36;;;;;;;33.10;18.63;;;6.70;97.00;;;;;;5094173;28;20037;-87
2021/04/17 05:03:02;;;;;;;39.88;21.08;;;6.70;96.80;;;;;;5093468;28;20039;-86
2021/04/17 05:05:27;;;;;;;37.33;19.90;;;6.70;97.10;;;;;;5093086;28;20062;-87
2021/04/17 05:07:53;;;;;;;35.83;20.27;;;6.70;97.50;;;;;;5093117;28;20032;-88
2021/04/17 05:10:19;;;;;;;33.05;18.45;;;6.70;97.70;;;;;;5092599;28;20063;-87
2021/04/17 05:12:44;;;;;;;27.17;16.85;;;6.70;97.70;;;;;;5092810;28;20047;-88
2021/04/17 05:15:11;;;;;;;28.80;17.85;;;6.70;97.70;;;;;;5092129;28;20470;-88
2021/04/17 05:17:36;;;;;;;23.85;14.82;;;6.80;97.70;;;;;;5092542;28;20028;-87
2021/04/17 05:20:03;;;;;;;26.13;14.48;;;6.80;97.60;;;;;;5092112;28;20039;-86
2021/04/17 05:22:28;;;;;;;28.60;16.92;;;6.90;97.40;;;;;;5093353;28;20482;-86
2021/04/17 05:24:54;;;;;;;27.70;17.80;;;7.00;97.20;;;;;;5092774;28;20032;-86
2021/04/17 05:27:20;;;;;;;26.60;17.70;;;7.00;96.80;;;;;;5092538;28;20137;-85
2021/04/17 05:29:45;;;;;;;30.00;19.42;;;7.10;96.70;;;;;;5092691;28;20396;-85
2021/04/17 05:32:11;;;;;;;28.60;19.73;;;7.00;97.20;;;;;;5093632;28;20032;-84
2021/04/17 05:34:37;;;;;;;31.20;19.70;;;7.00;96.90;;;;;;5092484;28;20033;-86
2021/04/17 05:37:04;;;;;;;29.45;18.83;;;7.10;96.80;;;;;;5092668;28;20059;-86
2021/04/17 05:39:29;;;;;;;31.73;20.45;;;7.10;96.90;;;;;;5093700;28;20055;-85
2021/04/17 05:41:55;;;;;;;29.65;19.73;;;7.10;96.90;;;;;;5092392;28;20035;-85
2021/04/17 05:44:20;;;;;;;28.75;19.58;;;7.20;96.70;;;;;;5095511;28;20032;-85
2021/04/17 05:46:47;;;;;;;27.95;18.52;;;7.20;96.70;;;;;;5096068;28;20032;-86
2021/04/17 05:49:14;;;;;;;28.00;18.60;;;7.20;96.70;;;;;;5096156;28;20312;-85
2021/04/17 05:51:42;;;;;;;27.95;18.88;;;7.20;96.70;;;;;;5095752;28;20032;-85
2021/04/17 05:54:09;;;;;;;27.92;18.35;;;7.30;96.70;;;;;;5095663;28;20036;-85
2021/04/17 05:56:35;;;;;;;28.95;18.23;;;7.30;96.60;;;;;;5095706;28;20035;-85
2021/04/17 05:59:00;;;;;;;25.55;17.52;;;7.30;96.60;;;;;;5095570;28;20029;-84
2021/04/17 06:01:26;;;;;;;25.40;17.08;;;7.40;96.70;;;;;;5095887;28;20501;-84
2021/04/17 06:03:52;;;;;;;24.60;16.80;;;7.40;96.70;;;;;;5096881;28;20028;-85
2021/04/17 06:06:18;;;;;;;23.08;16.25;;;7.50;96.70;;;;;;5097177;28;20036;-85
2021/04/17 06:08:44;;;;;;;22.48;14.88;;;7.40;96.90;;;;;;5105754;28;20436;-84
2021/04/17 06:11:10;;;;;;;20.23;14.48;;;7.60;96.90;;;;;;5095429;28;20496;-84
2021/04/17 06:13:36;;;;;;;20.80;13.98;;;7.70;96.50;;;;;;5095741;28;20028;-86
2021/04/17 06:16:05;;;;;;;21.30;14.38;;;7.70;96.30;;;;;;5096218;28;20039;-86
2021/04/17 06:18:31;;;;;;;18.55;13.70;;;7.70;96.40;;;;;;5096664;28;20114;-86
2021/04/17 06:20:57;;;;;;;18.13;12.98;;;7.80;96.60;;;;;;5096576;28;20043;-87
2021/04/17 06:23:22;;;;;;;17.17;13.00;;;7.80;96.70;;;;;;5096539;28;20035;-87
2021/04/17 06:25:48;;;;;;;15.27;11.40;;;8.00;96.60;;;;;;5078632;28;20394;-86
2021/04/17 06:28:14;;;;;;;14.52;11.05;;;8.10;96.50;;;;;;5096766;28;20119;-87
2021/04/17 06:30:39;;;;;;;14.23;11.05;;;8.30;96.40;;;;;;5096714;28;20028;-87
2021/04/17 06:33:05;;;;;;;13.77;11.00;;;8.40;96.10;;;;;;5095552;28;20024;-87
2021/04/17 06:35:31;;;;;;;14.40;11.82;;;8.50;95.70;;;;;;5095761;28;20083;-87
2021/04/17 06:37:57;;;;;;;15.50;11.30;;;8.40;95.30;;;;;;5098687;28;20088;-87
2021/04/17 06:40:24;;;;;;;13.00;10.05;;;8.40;95.60;;;;;;5098794;28;20028;-88
2021/04/17 06:42:52;;;;;;;14.10;10.85;;;8.50;95.70;;;;;;5117219;28;20470;-87
2021/04/17 06:45:22;;;;;;;15.82;12.00;;;8.60;95.30;;;;;;5098665;28;20119;-87
2021/04/17 06:47:48;;;;;;;16.75;13.07;;;8.60;95.40;;;;;;5099003;28;20027;-87
2021/04/17 06:50:15;;;;;;;15.40;11.52;;;8.60;95.50;;;;;;5098321;28;20028;-87
2021/04/17 06:52:41;;;;;;;17.63;12.85;;;8.70;95.50;;;;;;5096235;28;20080;-88
2021/04/17 06:55:09;;;;;;;18.15;13.95;;;8.70;95.60;;;;;;5097698;28;20028;-89
2021/04/17 06:57:36;;;;;;;17.75;13.40;;;8.70;95.40;;;;;;5098627;28;20031;-88
2021/04/17 07:00:05;;;;;;;20.58;15.27;;;8.80;95.50;;;;;;5098359;28;20027;-88
2021/04/17 07:02:31;;;;;;;18.73;13.60;;;8.80;94.90;;;;;;5116597;28;20042;-87
2021/04/17 07:04:57;;;;;;;18.77;14.43;;;8.80;94.90;;;;;;5098399;28;20028;-87
2021/04/17 07:07:23;;;;;;;21.95;15.40;;;8.80;94.60;;;;;;5098170;28;20036;-88
2021/04/17 07:09:50;;;;;;;20.10;14.70;;;8.70;94.50;;;;;;5098557;28;20038;-88
2021/04/17 07:12:16;;;;;;;21.65;15.02;;;8.60;94.70;;;;;;5099012;28;20038;-88
2021/04/17 07:14:52;;;;;;;17.70;13.23;;;8.50;94.70;;;;;;5116254;28;20054;-87
2021/04/17 07:17:19;;;;;;;18.45;14.57;;;8.50;94.50;;;;;;5097950;28;20118;-87
2021/04/17 07:19:59;;;;;;;19.08;14.98;;;8.40;94.50;;;;;;5098056;28;20035;-87
2021/04/17 07:22:35;;;;;;;18.95;14.20;;;8.40;94.60;;;;;;5098359;28;20059;-88
2021/04/17 07:25:07;;;;;;;15.30;12.80;;;8.30;94.80;;;;;;5097859;28;20046;-88
2021/04/17 07:27:45;;;;;;;18.08;14.07;;;8.30;94.70;;;;;;5097956;28;20396;-88
2021/04/17 07:30:17;;;;;;;20.83;15.88;;;8.30;94.60;;;;;;5097097;28;20838;-85
2021/04/17 07:33:14;;;;;;;22.35;16.45;;;8.30;94.70;;;;;;5115521;28;20036;-84
2021/04/17 07:35:45;;;;;;;23.27;17.50;;;8.20;94.80;;;;;;5115573;28;20031;-85
2021/04/17 07:38:16;;;;;;;20.75;14.95;;;8.20;94.80;;;;;;5097012;28;20068;-85
2021/04/17 07:40:45;;;;;;;22.48;16.38;;;8.00;95.10;;;;;;5097040;28;20066;-85
2021/04/17 07:43:10;;;;;;;21.08;15.90;;;8.00;95.00;;;;;;5097166;28;20032;-84
2021/04/17 07:45:41;;;;;;;20.92;15.75;;;8.00;95.00;;;;;;5096818;28;20043;-84
2021/04/17 07:48:24;;;;;;;24.77;16.48;;;8.00;95.10;;;;;;5096976;28;20084;-82
2021/04/17 07:50:50;;;;;;;22.45;17.42;;;8.00;95.10;;;;;;5114849;28;20847;-83
2021/04/17 07:53:32;;;;;;;25.00;18.38;;;8.00;94.90;;;;;;5101955;28;20035;-85
2021/04/17 07:56:35;;;;;;;21.02;15.93;;;7.90;94.80;;;;;;5098802;28;20063;-84
2021/04/17 07:59:04;;;;;;;22.35;16.00;;;7.80;95.10;;;;;;5096744;28;20028;-84
2021/04/17 08:01:32;;;;;;;24.10;17.58;;;7.90;95.20;;;;;;5096973;28;20034;-83
2021/04/17 08:04:00;;;;;;;23.27;17.13;;;7.90;94.90;;;;;;5115495;28;20035;-84
2021/04/17 08:06:27;;;;;;;23.48;17.23;;;7.80;95.00;;;;;;5097799;28;20039;-82
2021/04/17 08:08:55;;;;;;;26.30;19.52;;;7.90;95.10;;;;;;5096881;28;20477;-85
2021/04/17 08:11:24;;;;;;;27.58;19.13;;;7.80;95.40;;;;;;5096540;28;20094;-87
2021/04/17 08:13:51;;;;;;;45.15;29.52;;;7.80;95.40;;;;;;5096287;28;20452;-74
2021/04/17 08:16:18;;;;;;;31.05;21.02;;;7.90;95.20;;;;;;5095525;28;20027;-75
2021/04/17 08:18:44;;;;;;;23.60;16.90;;;7.90;95.20;;;;;;5113720;28;20028;-75
2021/04/17 08:21:12;;;;;;;25.55;18.00;;;7.90;95.00;;;;;;5113053;28;20043;-73
2021/04/17 08:23:38;;;;;;;29.73;19.42;;;8.00;94.80;;;;;;5122543;27;20027;-73
2021/04/17 08:26:06;;;;;;;26.27;17.85;;;8.00;94.60;;;;;;5126291;27;20055;-73
2021/04/17 08:28:49;;;;;;;23.15;16.15;;;8.00;94.50;;;;;;5095575;28;20035;-73
2021/04/17 08:31:31;;;;;;;27.45;18.77;;;8.00;94.90;;;;;;5095650;28;20027;-73
2021/04/17 08:34:15;;;;;;;28.48;18.42;;;8.00;94.60;;;;;;5096460;28;20059;-73
2021/04/17 08:36:45;;;;;;;25.75;17.85;;;8.10;94.70;;;;;;5085731;28;20044;-73
2021/04/17 08:39:36;;;;;;;25.23;17.67;;;8.10;94.60;;;;;;5075565;28;20381;-73
2021/04/17 08:42:03;;;;;;;26.00;17.50;;;8.10;94.50;;;;;;5075687;28;20096;-73
2021/04/17 08:44:33;;;;;;;23.95;16.50;;;8.20;94.60;;;;;;5075586;28;20067;-73
2021/04/17 08:47:00;;;;;;;23.92;17.80;;;8.30;94.50;;;;;;5093075;28;20040;-73
2021/04/17 08:49:32;;;;;;;25.23;18.58;;;8.30;94.50;;;;;;5075080;28;20557;-73
2021/04/17 08:52:19;;;;;;;23.15;17.20;;;8.40;94.50;;;;;;5075348;28;20395;-72
2021/04/17 08:55:06;;;;;;;25.15;18.25;;;8.50;94.30;;;;;;5075844;28;20032;-72
2021/04/17 08:57:31;;;;;;;27.25;19.02;;;8.60;94.20;;;;;;5078694;28;20028;-73
2021/04/17 09:00:00;;;;;;;24.75;18.23;;;8.60;94.00;;;;;;5075022;28;20036;-72
2021/04/17 09:02:28;;;;;;;23.42;17.38;;;8.60;93.90;;;;;;5076662;28;20081;-72
2021/04/17 09:05:13;;;;;;;28.98;19.20;;;8.60;94.00;;;;;;5074857;28;20044;-73
2021/04/17 09:07:47;;;;;;;28.17;18.38;;;8.60;93.60;;;;;;5092823;28;20024;-73
2021/04/17 09:10:35;;;;;;;25.17;18.75;;;8.60;93.60;;;;;;5093550;28;20105;-73
2021/04/17 09:13:10;;;;;;;23.52;17.20;;;8.50;93.70;;;;;;5093501;28;20031;-73
2021/04/17 09:15:56;;;;;;;23.98;17.48;;;8.60;93.60;;;;;;5090252;28;20389;-73
2021/04/17 09:18:37;;;;;;;21.20;15.93;;;8.40;93.70;;;;;;5094813;28;20028;-73
2021/04/17 09:21:14;;;;;;;21.77;16.65;;;8.50;93.60;;;;;;5078782;28;20134;-73
2021/04/17 09:23:46;;;;;;;22.17;16.20;;;8.60;93.70;;;;;;5097162;28;20105;-73
2021/04/17 09:26:33;;;;;;;25.17;17.17;;;8.70;93.60;;;;;;5078528;28;20504;-75
2021/04/17 09:29:04;;;;;;;30.77;20.60;;;8.70;93.10;;;;;;5096805;28;20040;-83
2021/04/17 09:31:37;;;;;;;41.50;25.95;;;8.60;93.10;;;;;;5096984;28;20056;-85
2021/04/17 09:34:04;;;;;;;28.63;19.88;;;8.60;93.00;;;;;;5097389;28;20444;-86
2021/04/17 09:36:30;;;;;;;23.67;17.35;;;8.50;93.10;;;;;;5087001;28;20047;-85
2021/04/17 09:38:57;;;;;;;24.65;18.05;;;8.50;93.30;;;;;;5093910;28;20062;-81
2021/04/17 09:41:23;;;;;;;25.05;17.70;;;8.50;93.50;;;;;;5078363;28;20036;-80
2021/04/17 09:43:56;;;;;;;26.58;17.60;;;8.40;93.50;;;;;;5078507;28;20031;-82
2021/04/17 09:46:23;;;;;;;27.73;18.17;;;8.50;93.50;;;;;;5096852;28;20043;-82
2021/04/17 09:48:49;;;;;;;33.03;19.90;;;8.50;93.50;;;;;;5078390;28;20097;-81
2021/04/17 09:51:26;;;;;;;32.47;19.20;;;8.50;93.40;;;;;;5096385;28;20036;-82
2021/04/17 09:53:54;;;;;;;26.52;16.80;;;8.40;93.90;;;;;;5096911;28;20031;-82
2021/04/17 09:56:30;;;;;;;23.25;16.80;;;8.50;94.00;;;;;;5078239;28;20524;-81
2021/04/17 09:58:57;;;;;;;23.98;16.45;;;8.60;93.80;;;;;;5078473;28;20036;-81
2021/04/17 10:01:23;;;;;;;25.60;16.58;;;8.60;93.70;;;;;;5078388;28;20097;-81
2021/04/17 10:04:02;;;;;;;21.20;15.23;;;8.60;93.60;;;;;;5078622;28;20089;-79
2021/04/17 10:06:29;;;;;;;22.13;16.42;;;8.70;93.70;;;;;;5097645;28;20043;-79
2021/04/17 10:09:16;;;;;;;23.88;16.10;;;8.80;93.40;;;;;;5079379;28;20040;-80
2021/04/17 10:11:44;;;;;;;25.20;16.75;;;8.90;93.30;;;;;;5096016;28;20411;-80
2021/04/17 10:14:11;;;;;;;24.00;16.55;;;9.00;93.40;;;;;;5078118;28;20482;-81
2021/04/17 10:16:40;;;;;;;26.02;17.90;;;9.10;93.20;;;;;;5096277;28;20020;-81
2021/04/17 10:19:14;;;;;;;25.17;18.45;;;9.20;93.00;;;;;;5077940;28;20039;-81
2021/04/17 10:21:41;;;;;;;20.77;15.30;;;9.20;92.80;;;;;;5096192;28;20505;-81
2021/04/17 10:24:28;;;;;;;24.77;16.15;;;9.30;92.40;;;;;;5096012;28;20107;-81
2021/04/17 10:27:03;;;;;;;23.55;16.55;;;9.20;92.30;;;;;;5097002;28;20028;-80
2021/04/17 10:29:46;;;;;;;25.98;16.40;;;9.20;92.10;;;;;;5076732;28;20036;-80
2021/04/17 10:32:23;;;;;;;26.15;17.80;;;9.10;92.30;;;;;;5095899;28;20035;-80
2021/04/17 10:34:50;;;;;;;25.90;17.25;;;9.10;92.10;;;;;;5077935;28;20024;-80
2021/04/17 10:37:24;;;;;;;22.67;15.95;;;9.10;92.10;;;;;;5110564;28;20047;-82
2021/04/17 10:40:05;;;;;;;21.52;15.07;;;9.00;92.10;;;;;;5098334;28;20038;-81
2021/04/17 10:42:51;;;;;;;20.80;14.20;;;9.00;92.30;;;;;;5097662;28;20043;-80
2021/04/17 10:45:23;;;;;;;25.30;18.92;;;8.90;92.60;;;;;;5116216;28;20032;-79
2021/04/17 10:48:18;;;;;;;30.23;21.65;;;9.00;92.70;;;;;;5097555;28;20035;-81
2021/04/17 10:51:00;;;;;;;30.98;20.05;;;9.00;92.90;;;;;;5095107;28;20035;-80
2021/04/17 10:53:37;;;;;;;25.40;17.10;;;9.10;92.70;;;;;;5097687;28;20496;-80
2021/04/17 10:56:11;;;;;;;19.55;14.98;;;9.20;92.60;;;;;;5111115;28;20033;-80
2021/04/17 10:58:37;;;;;;;20.55;14.73;;;9.30;92.60;;;;;;5115666;28;20031;-79
2021/04/17 11:01:10;;;;;;;24.77;16.65;;;9.30;92.60;;;;;;5098242;28;20043;-83
2021/04/17 11:03:46;;;;;;;20.40;14.52;;;9.30;92.70;;;;;;5097470;28;20039;-81
2021/04/17 11:06:17;;;;;;;21.58;14.10;;;9.40;92.40;;;;;;5098399;28;20381;-80
2021/04/17 11:08:43;;;;;;;17.70;13.70;;;9.50;92.10;;;;;;5097270;28;20481;-81
2021/04/17 11:11:17;;;;;;;16.35;12.63;;;9.50;91.80;;;;;;5097264;28;20044;-82
2021/04/17 11:13:45;;;;;;;17.85;14.13;;;9.60;91.80;;;;;;5097665;28;20047;-82
2021/04/17 11:16:12;;;;;;;19.15;13.48;;;9.60;91.90;;;;;;5115428;28;20091;-82
2021/04/17 11:18:44;;;;;;;18.73;13.32;;;9.60;92.00;;;;;;5097070;28;20042;-80
2021/04/17 11:21:10;;;;;;;18.98;13.88;;;9.70;91.70;;;;;;5096824;28;20507;-81
2021/04/17 11:24:02;;;;;;;51.67;23.00;;;9.80;91.50;;;;;;5097188;28;20039;-81
2021/04/17 11:26:30;;;;;;;68.28;26.33;;;9.90;90.90;;;;;;5094975;28;20036;-81
2021/04/17 11:28:58;;;;;;;26.25;16.90;;;10.00;91.30;;;;;;5096768;28;20042;-81
2021/04/17 11:31:30;;;;;;;21.33;15.73;;;10.00;91.00;;;;;;5096865;28;20500;-83
2021/04/17 11:33:59;;;;;;;22.10;16.92;;;10.10;91.00;;;;;;5115059;28;20354;-80
2021/04/17 11:36:26;;;;;;;30.13;21.02;;;10.30;90.80;;;;;;5115187;28;20047;-78
2021/04/17 11:38:54;;;;;;;28.88;21.25;;;10.50;90.60;;;;;;5114725;28;20038;-77
2021/04/17 11:41:20;;;;;;;19.98;15.57;;;10.70;90.00;;;;;;5114233;28;20102;-77
2021/04/17 11:43:46;;;;;;;16.33;12.68;;;10.80;89.40;;;;;;5114959;28;20471;-79
2021/04/17 11:46:12;;;;;;;17.65;12.20;;;10.70;89.20;;;;;;5096666;28;20118;-79
2021/04/17 11:48:39;;;;;;;15.10;11.30;;;10.90;89.60;;;;;;5095623;28;20066;-79
2021/04/17 11:51:05;;;;;;;14.25;12.55;;;11.00;88.40;;;;;;5094429;28;20032;-79
2021/04/17 11:53:31;;;;;;;12.70;10.73;;;11.10;88.60;;;;;;5112486;28;20028;-81
2021/04/17 11:55:56;;;;;;;12.27;10.35;;;11.20;87.60;;;;;;5112732;28;20034;-81
2021/04/17 11:58:22;;;;;;;12.90;9.77;;;11.30;87.40;;;;;;5113382;28;20028;-81
2021/04/17 12:00:48;;;;;;;16.08;11.65;;;11.30;88.20;;;;;;5094540;28;20040;-81
2021/04/17 12:03:20;;;;;;;10.02;8.82;;;11.30;86.20;;;;;;5094536;28;20039;-81
2021/04/17 12:05:47;;;;;;;12.80;10.32;;;11.40;87.20;;;;;;5094583;28;20481;-81
2021/04/17 12:08:12;;;;;;;15.30;11.38;;;11.50;85.40;;;;;;5094564;28;20036;-80
2021/04/17 12:10:38;;;;;;;10.73;9.57;;;11.40;85.00;;;;;;5094399;28;20038;-80
2021/04/17 12:13:04;;;;;;;12.80;10.52;;;11.30;85.50;;;;;;5112659;28;20057;-80
2021/04/17 12:15:29;;;;;;;15.23;11.38;;;11.30;86.00;;;;;;5094440;28;20036;-80
2021/04/17 12:17:55;;;;;;;13.75;11.25;;;11.20;86.40;;;;;;5112609;28;20032;-81
2021/04/17 12:20:21;;;;;;;13.65;12.02;;;11.10;87.40;;;;;;5112875;28;20051;-80
2021/04/17 12:22:47;;;;;;;13.68;11.07;;;11.10;85.50;;;;;;5113103;28;20031;-80
2021/04/17 12:25:13;;;;;;;11.55;9.98;;;10.90;86.00;;;;;;5114373;28;20035;-80
2021/04/17 12:27:38;;;;;;;13.27;10.55;;;10.80;86.30;;;;;;5114402;28;20546;-80
2021/04/17 12:30:07;;;;;;;13.85;10.48;;;10.70;86.80;;;;;;5113574;28;20023;-79
2021/04/17 12:32:33;;;;;;;11.88;10.68;;;10.60;87.40;;;;;;5113792;28;20028;-80
2021/04/17 12:34:58;;;;;;;11.35;9.70;;;10.60;87.30;;;;;;5096127;28;20028;-80
2021/04/17 12:37:24;;;;;;;10.50;9.40;;;10.50;88.00;;;;;;5113722;28;20180;-80
2021/04/17 12:39:50;;;;;;;13.90;11.32;;;10.50;87.80;;;;;;5114292;28;20023;-78
2021/04/17 12:42:16;;;;;;;10.05;9.05;;;10.30;88.10;;;;;;5113722;28;20028;-76
2021/04/17 12:44:42;;;;;;;10.60;9.05;;;10.40;88.10;;;;;;5113938;28;20027;-78